createdAt,value
2023-11-01T00:01:42.933Z,17.20
2023-11-01T00:04:21.710Z,17.20
2023-11-01T00:06:49.637Z,17.20
2023-11-01T00:09:23.368Z,17.10
2023-11-01T00:11:51.260Z,17.10
2023-11-01T00:14:22.095Z,17.10
2023-11-01T00:16:50.003Z,17.10
2023-11-01T00:19:22.401Z,17.10
2023-11-01T00:21:50.274Z,17.00
2023-11-01T00:24:21.207Z,17.00
2023-11-01T00:26:49.094Z,17.00
2023-11-01T00:29:20.338Z,16.90
2023-11-01T00:31:57.374Z,16.90
2023-11-01T00:34:29.454Z,16.80
2023-11-01T00:37:02.685Z,16.70
2023-11-01T00:39:33.290Z,16.70
2023-11-01T00:42:01.207Z,16.80
2023-11-01T00:44:29.186Z,16.90
2023-11-01T00:46:57.166Z,16.90
2023-11-01T00:49:41.773Z,16.80
2023-11-01T00:52:09.815Z,16.80
2023-11-01T00:54:45.326Z,16.80
2023-11-01T00:57:16.235Z,16.80
2023-11-01T00:59:44.179Z,16.80
2023-11-01T01:02:15.200Z,16.70
2023-11-01T01:04:46.433Z,16.70
2023-11-01T01:07:14.416Z,16.70
2023-11-01T01:09:42.540Z,16.70
2023-11-01T01:12:10.753Z,16.70
2023-11-01T01:14:41.485Z,16.70
2023-11-01T01:17:09.475Z,16.70
2023-11-01T01:19:47.781Z,16.70
2023-11-01T01:22:15.691Z,16.70
2023-11-01T01:24:49.763Z,16.70
2023-11-01T01:27:17.723Z,16.70
2023-11-01T01:29:48.287Z,16.70
2023-11-01T01:32:16.251Z,16.70
2023-11-01T01:34:44.314Z,16.70
2023-11-01T01:37:16.104Z,16.70
2023-11-01T01:39:44.016Z,16.60
2023-11-01T01:42:14.656Z,16.60
2023-11-01T01:44:45.932Z,16.40
2023-11-01T01:47:17.024Z,16.50
2023-11-01T01:49:54.693Z,16.50
2023-11-01T01:52:27.174Z,16.60
2023-11-01T01:55:00.446Z,16.60
2023-11-01T01:57:30.515Z,16.50
2023-11-01T02:00:02.409Z,16.40
2023-11-01T02:02:30.404Z,16.40
2023-11-01T02:05:09.674Z,16.60
2023-11-01T02:07:41.793Z,16.60
2023-11-01T02:10:15.277Z,16.60
2023-11-01T02:12:43.253Z,16.60
2023-11-01T02:15:17.654Z,16.50
2023-11-01T02:17:55.573Z,16.40
2023-11-01T02:20:23.987Z,16.30
2023-11-01T02:22:56.876Z,16.20
2023-11-01T02:25:29.400Z,16.20
2023-11-01T02:28:04.573Z,16.10
2023-11-01T02:30:41.054Z,16.10
2023-11-01T02:33:09.663Z,16.10
2023-11-01T02:35:38.265Z,16.10
2023-11-01T02:38:06.550Z,16.00
2023-11-01T02:40:38.841Z,16.00
2023-11-01T02:43:09.791Z,15.90
2023-11-01T02:45:37.751Z,15.80
2023-11-01T02:48:12.405Z,15.70
2023-11-01T02:50:43.182Z,15.60
2023-11-01T02:53:11.151Z,15.50
2023-11-01T02:55:42.122Z,15.50
2023-11-01T02:58:10.764Z,15.50
2023-11-01T03:00:38.716Z,15.50
2023-11-01T03:03:15.925Z,15.40
2023-11-01T03:05:45.925Z,15.40
2023-11-01T03:08:19.867Z,15.30
2023-11-01T03:10:53.297Z,15.30
2023-11-01T03:13:21.261Z,15.20
2023-11-01T03:15:52.331Z,15.10
2023-11-01T03:18:26.588Z,15.10
2023-11-01T03:20:57.378Z,15.10
2023-11-01T03:23:27.511Z,15.20
2023-11-01T03:25:56.819Z,15.20
2023-11-01T03:28:26.887Z,15.10
2023-11-01T03:31:02.141Z,15.10
2023-11-01T03:33:30.171Z,15.10
2023-11-01T03:35:58.073Z,15.10
2023-11-01T03:38:28.986Z,15.10
2023-11-01T03:40:58.270Z,15.20
2023-11-01T03:43:26.170Z,15.10
2023-11-01T03:45:56.251Z,15.20
2023-11-01T03:48:28.001Z,15.20
2023-11-01T03:50:55.956Z,15.30
2023-11-01T03:53:23.887Z,15.20
2023-11-01T03:55:51.972Z,15.30
2023-11-01T03:58:24.130Z,15.30
2023-11-01T04:00:54.831Z,15.30
2023-11-01T04:03:26.048Z,15.40
2023-11-01T04:05:57.182Z,15.60
2023-11-01T04:08:25.131Z,15.60
2023-11-01T04:10:53.078Z,15.60
2023-11-01T04:13:28.576Z,15.70
2023-11-01T04:15:59.064Z,15.60
2023-11-01T04:18:29.807Z,15.50
2023-11-01T04:20:57.808Z,15.50
2023-11-01T04:23:28.531Z,15.50
2023-11-01T04:25:56.453Z,15.60
2023-11-01T04:28:28.508Z,15.50
2023-11-01T04:31:06.355Z,15.60
2023-11-01T04:33:34.279Z,15.60
2023-11-01T04:36:09.346Z,15.50
2023-11-01T04:38:37.550Z,15.40
2023-11-01T04:41:10.762Z,15.40
2023-11-01T04:43:43.371Z,15.50
2023-11-01T04:46:14.714Z,15.50
2023-11-01T04:48:48.255Z,15.60
2023-11-01T04:51:16.190Z,15.50
2023-11-01T04:53:44.662Z,15.70
2023-11-01T04:56:18.412Z,15.90
2023-11-01T04:58:50.771Z,16.00
2023-11-01T05:01:18.771Z,16.20
2023-11-01T05:04:05.345Z,16.40
2023-11-01T05:06:36.107Z,16.50
2023-11-01T05:09:06.023Z,16.40
2023-11-01T05:11:36.803Z,16.50
2023-11-01T05:14:09.233Z,16.40
2023-11-01T05:16:43.087Z,16.50
2023-11-01T05:19:13.949Z,16.40
2023-11-01T05:21:46.932Z,16.50
2023-11-01T05:24:18.088Z,16.60
2023-11-01T05:26:54.723Z,16.80
2023-11-01T05:29:27.201Z,16.80
2023-11-01T05:31:56.859Z,16.80
2023-11-01T05:34:36.968Z,16.80
2023-11-01T05:37:13.179Z,16.80
2023-11-01T05:39:46.291Z,16.90
2023-11-01T05:42:16.894Z,16.90
2023-11-01T05:44:46.211Z,17.00
2023-11-01T05:47:16.278Z,17.00
2023-11-01T05:49:46.429Z,17.10
2023-11-01T05:52:17.111Z,17.10
2023-11-01T05:55:07.139Z,17.30
2023-11-01T05:57:39.145Z,17.20
2023-11-01T06:00:18.814Z,17.20
2023-11-01T06:02:46.803Z,17.20
2023-11-01T06:05:17.744Z,17.20
2023-11-01T06:07:46.134Z,17.20
2023-11-01T06:10:14.118Z,17.30
2023-11-01T06:12:47.947Z,17.10
2023-11-01T06:15:28.279Z,17.10
2023-11-01T06:17:58.774Z,17.00
2023-11-01T06:20:32.978Z,16.90
2023-11-01T06:23:09.072Z,17.00
2023-11-01T06:25:39.098Z,17.10
2023-11-01T06:28:10.479Z,17.10
2023-11-01T06:30:42.049Z,17.00
2023-11-01T06:33:16.207Z,16.90
2023-11-01T06:35:44.194Z,16.90
2023-11-01T06:38:15.063Z,16.80
2023-11-01T06:40:42.986Z,17.00
2023-11-01T06:43:13.050Z,17.00
2023-11-01T06:45:42.454Z,17.00
2023-11-01T06:48:13.213Z,17.20
2023-11-01T06:50:42.043Z,17.30
2023-11-01T06:53:10.039Z,17.30
2023-11-01T06:55:41.061Z,17.30
2023-11-01T06:58:14.285Z,17.40
2023-11-01T07:00:43.684Z,17.40
2023-11-01T07:03:12.384Z,17.50
2023-11-01T07:05:40.603Z,17.50
2023-11-01T07:08:08.588Z,17.40
2023-11-01T07:10:36.981Z,17.40
2023-11-01T07:13:06.193Z,17.40
2023-11-01T07:15:34.421Z,17.30
2023-11-01T07:18:03.811Z,17.30
2023-11-01T07:20:31.860Z,17.40
2023-11-01T07:23:02.646Z,17.40
2023-11-01T07:25:30.725Z,17.30
2023-11-01T07:27:57.694Z,17.40
2023-11-01T07:30:25.643Z,17.50
2023-11-01T07:32:56.663Z,17.60
2023-11-01T07:35:26.013Z,17.60
2023-11-01T07:37:56.810Z,17.50
2023-11-01T07:40:24.721Z,17.60
2023-11-01T07:42:52.626Z,17.60
2023-11-01T07:45:20.566Z,17.70
2023-11-01T07:47:51.395Z,17.70
2023-11-01T07:50:22.584Z,17.70
2023-11-01T07:52:51.950Z,17.70
2023-11-01T07:55:20.271Z,17.80
2023-11-01T07:57:48.393Z,17.80
2023-11-01T08:00:22.957Z,17.60
2023-11-01T08:02:54.464Z,17.50
2023-11-01T08:05:22.749Z,17.60
2023-11-01T08:07:59.598Z,17.70
2023-11-01T08:10:33.506Z,17.80
2023-11-01T08:13:01.510Z,17.90
2023-11-01T08:15:33.467Z,17.80
2023-11-01T08:18:04.090Z,17.60
2023-11-01T08:20:32.196Z,17.40
2023-11-01T08:23:01.561Z,17.20
2023-11-01T08:25:32.341Z,17.10
2023-11-01T08:28:06.786Z,17.10
2023-11-01T08:30:34.838Z,17.10
2023-11-01T08:33:05.172Z,17.10
2023-11-01T08:35:35.912Z,17.10
2023-11-01T08:38:09.753Z,17.10
2023-11-01T08:40:37.764Z,17.10
2023-11-01T08:43:06.759Z,17.10
2023-11-01T08:45:37.774Z,17.00
2023-11-01T08:48:08.994Z,17.00
2023-11-01T08:50:41.905Z,17.10
2023-11-01T08:53:11.231Z,17.10
2023-11-01T08:55:45.322Z,17.30
2023-11-01T08:58:16.244Z,17.40
2023-11-01T09:00:48.142Z,17.40
2023-11-01T09:03:18.008Z,17.50
2023-11-01T09:06:04.262Z,17.40
2023-11-01T09:08:33.585Z,17.50
2023-11-01T09:11:04.596Z,17.50
2023-11-01T09:13:35.619Z,17.60
2023-11-01T09:16:10.095Z,17.70
2023-11-01T09:18:44.199Z,17.80
2023-11-01T09:21:12.099Z,17.80
2023-11-01T09:23:41.508Z,17.80
2023-11-01T09:26:10.645Z,17.90
2023-11-01T09:28:47.763Z,18.00
2023-11-01T09:31:15.715Z,18.00
2023-11-01T09:33:50.606Z,18.20
2023-11-01T09:36:19.182Z,18.20
2023-11-01T09:38:57.715Z,18.10
2023-11-01T09:41:30.066Z,18.20
2023-11-01T09:44:00.570Z,18.20
2023-11-01T09:46:29.065Z,18.10
2023-11-01T09:48:57.321Z,18.20
2023-11-01T09:51:28.571Z,18.20
2023-11-01T09:54:00.609Z,18.20
2023-11-01T09:56:29.685Z,18.20
2023-11-01T09:59:06.860Z,18.30
2023-11-01T10:01:36.672Z,18.40
2023-11-01T10:04:06.019Z,18.40
2023-11-01T10:06:36.748Z,18.40
2023-11-01T10:09:06.523Z,18.30
2023-11-01T10:11:34.491Z,18.40
2023-11-01T10:14:08.276Z,18.40
2023-11-01T10:16:44.185Z,18.40
2023-11-01T10:19:14.933Z,18.50
2023-11-01T10:21:43.338Z,18.40
2023-11-01T10:24:15.454Z,18.40
2023-11-01T10:26:46.224Z,18.40
2023-11-01T10:29:14.312Z,18.40
2023-11-01T10:31:42.243Z,18.50
2023-11-01T10:34:14.157Z,18.50
2023-11-01T10:36:52.330Z,18.60
2023-11-01T10:39:23.315Z,18.60
2023-11-01T10:42:08.743Z,18.60
2023-11-01T10:44:36.913Z,18.70
2023-11-01T10:47:11.373Z,18.70
2023-11-01T10:49:50.196Z,18.80
2023-11-01T10:52:18.777Z,18.70
2023-11-01T10:54:51.350Z,18.70
2023-11-01T10:57:21.442Z,18.60
2023-11-01T11:00:01.043Z,18.50
2023-11-01T11:02:43.272Z,18.60
2023-11-01T11:05:15.920Z,18.50
2023-11-01T11:07:59.068Z,18.60
2023-11-01T11:10:30.333Z,18.60
2023-11-01T11:13:37.675Z,18.60
2023-11-01T11:16:08.289Z,18.60
2023-11-01T11:18:57.012Z,18.70
2023-11-01T11:22:03.490Z,18.80
2023-11-01T11:24:53.506Z,18.80
2023-11-01T11:28:04.217Z,18.80
2023-11-01T11:31:09.767Z,18.80
2023-11-01T11:33:40.719Z,18.80
2023-11-01T11:36:11.994Z,18.80
2023-11-01T11:38:41.953Z,18.90
2023-11-01T11:41:17.062Z,18.90
2023-11-01T11:44:04.964Z,19.00
2023-11-01T11:46:36.974Z,19.00
2023-11-01T11:49:10.031Z,18.90
2023-11-01T11:51:59.124Z,19.00
2023-11-01T11:54:28.594Z,19.00
2023-11-01T11:56:59.759Z,19.10
2023-11-01T11:59:30.809Z,18.90
2023-11-01T12:02:11.135Z,18.90
2023-11-01T12:04:42.097Z,18.90
2023-11-01T12:07:19.572Z,19.00
2023-11-01T12:09:49.791Z,19.00
2023-11-01T12:12:21.428Z,19.00
2023-11-01T12:14:59.198Z,18.90
2023-11-01T12:17:34.475Z,18.90
2023-11-01T12:20:32.520Z,18.90
2023-11-01T12:23:07.520Z,19.00
2023-11-01T12:25:35.418Z,18.90
2023-11-01T12:28:23.531Z,19.00
2023-11-01T12:30:54.359Z,19.00
2023-11-01T12:33:22.672Z,19.00
2023-11-01T12:35:50.678Z,19.10
2023-11-01T12:38:19.967Z,19.10
2023-11-01T12:40:53.312Z,19.10
2023-11-01T12:43:27.855Z,19.20
2023-11-01T12:45:59.389Z,19.20
2023-11-01T12:48:28.123Z,19.30
2023-11-01T12:50:56.177Z,19.40
2023-11-01T12:53:25.667Z,19.30
2023-11-01T12:56:02.468Z,19.30
2023-11-01T12:58:30.745Z,19.30
2023-11-01T13:00:58.867Z,19.30
2023-11-01T13:03:27.101Z,19.30
2023-11-01T13:05:58.360Z,19.30
2023-11-01T13:08:29.365Z,19.20
2023-11-01T13:11:00.562Z,19.30
2023-11-01T13:13:28.492Z,19.40
2023-11-01T13:15:59.556Z,19.50
2023-11-01T13:18:27.600Z,19.40
2023-11-01T13:20:55.549Z,19.50
2023-11-01T13:23:23.546Z,19.50
2023-11-01T13:25:55.303Z,19.60
2023-11-01T13:28:29.228Z,19.30
2023-11-01T13:31:00.275Z,19.30
2023-11-01T13:33:42.202Z,19.30
2023-11-01T13:36:12.213Z,19.30
2023-11-01T13:38:40.152Z,19.40
2023-11-01T13:41:12.297Z,19.50
2023-11-01T13:43:42.630Z,19.40
2023-11-01T13:46:14.166Z,19.30
2023-11-01T13:48:44.906Z,19.40
2023-11-01T13:51:15.264Z,19.50
2023-11-01T13:53:43.218Z,19.40
2023-11-01T13:56:15.481Z,19.40
2023-11-01T13:58:44.897Z,19.50
2023-11-01T14:01:12.870Z,19.50
2023-11-01T14:03:41.074Z,19.50
2023-11-01T14:06:19.139Z,19.40
2023-11-01T14:08:49.911Z,19.30
2023-11-01T14:11:22.069Z,19.40
2023-11-01T14:13:54.048Z,19.50
2023-11-01T14:16:25.146Z,19.50
2023-11-01T14:18:53.711Z,19.40
2023-11-01T14:21:30.768Z,19.40
2023-11-01T14:24:10.294Z,19.30
2023-11-01T14:26:40.593Z,19.40
2023-11-01T14:29:08.882Z,19.40
2023-11-01T14:31:36.784Z,19.50
2023-11-01T14:34:09.648Z,19.40
2023-11-01T14:36:37.583Z,19.20
2023-11-01T14:39:05.905Z,19.10
2023-11-01T14:41:37.630Z,19.20
2023-11-01T14:44:07.592Z,19.40
2023-11-01T14:46:35.592Z,19.40
2023-11-01T14:49:08.693Z,19.30
2023-11-01T14:51:43.929Z,19.30
2023-11-01T14:54:16.130Z,19.30
2023-11-01T14:56:56.480Z,19.30
2023-11-01T14:59:25.976Z,19.20
2023-11-01T15:02:01.951Z,19.30
2023-11-01T15:04:30.004Z,19.30
2023-11-01T15:06:57.971Z,19.30
2023-11-01T15:09:25.959Z,19.30
2023-11-01T15:12:00.061Z,19.30
2023-11-01T15:14:32.023Z,19.20
2023-11-01T15:17:05.872Z,19.30
2023-11-01T15:19:33.839Z,19.40
2023-11-01T15:22:10.839Z,19.30
2023-11-01T15:24:39.407Z,19.30
2023-11-01T15:27:14.732Z,19.30
2023-11-01T15:29:53.667Z,19.20
2023-11-01T15:32:21.583Z,19.30
2023-11-01T15:34:52.440Z,19.20
2023-11-01T15:37:21.531Z,19.10
2023-11-01T15:40:11.603Z,19.10
2023-11-01T15:42:39.487Z,19.20
2023-11-01T15:45:11.266Z,19.20
2023-11-01T15:47:41.493Z,19.30
2023-11-01T15:50:09.606Z,19.00
2023-11-01T15:52:37.604Z,19.00
2023-11-01T15:55:06.091Z,18.90
2023-11-01T15:57:34.473Z,19.00
2023-11-01T16:00:07.080Z,19.10
2023-11-01T16:02:36.534Z,19.10
2023-11-01T16:05:08.318Z,19.20
2023-11-01T16:07:36.375Z,19.30
2023-11-01T16:10:04.638Z,19.20
2023-11-01T16:12:35.609Z,19.20
2023-11-01T16:15:04.379Z,19.20
2023-11-01T16:17:36.593Z,19.10
2023-11-01T16:20:04.913Z,19.10
2023-11-01T16:22:32.861Z,19.00
2023-11-01T16:25:00.791Z,18.90
2023-11-01T16:27:39.377Z,19.00
2023-11-01T16:30:11.300Z,19.00
2023-11-01T16:32:41.690Z,19.10
2023-11-01T16:35:10.440Z,19.00
2023-11-01T16:37:38.324Z,18.90
2023-11-01T16:40:07.520Z,18.80
2023-11-01T16:42:43.857Z,18.80
2023-11-01T16:45:18.133Z,18.70
2023-11-01T16:47:51.375Z,18.70
2023-11-01T16:50:28.196Z,18.70
2023-11-01T16:53:02.126Z,18.60
2023-11-01T16:55:30.037Z,18.60
2023-11-01T16:58:03.819Z,18.50
2023-11-01T17:00:34.178Z,18.50
2023-11-01T17:03:03.532Z,18.50
2023-11-01T17:05:34.635Z,18.50
2023-11-01T17:08:11.772Z,18.50
2023-11-01T17:10:39.764Z,18.50
2023-11-01T17:13:09.862Z,18.50
2023-11-01T17:15:37.843Z,18.50
2023-11-01T17:18:10.064Z,18.50
2023-11-01T17:20:44.518Z,18.40
2023-11-01T17:23:23.763Z,18.40
2023-11-01T17:26:29.014Z,18.40
2023-11-01T17:29:01.385Z,18.40
2023-11-01T17:31:46.309Z,18.40
2023-11-01T17:34:27.077Z,18.40
2023-11-01T17:37:00.067Z,18.30
2023-11-01T17:39:39.574Z,18.40
2023-11-01T17:42:12.362Z,18.60
2023-11-01T17:44:45.516Z,18.70
2023-11-01T17:47:26.011Z,18.70
2023-11-01T17:50:11.308Z,18.80
2023-11-01T17:52:43.725Z,18.80
2023-11-01T17:55:15.007Z,18.90
2023-11-01T17:57:46.027Z,18.90
2023-11-01T18:00:16.172Z,18.90
2023-11-01T18:03:18.560Z,18.90
2023-11-01T18:05:49.218Z,18.80
2023-11-01T18:08:21.324Z,18.80
2023-11-01T18:10:51.208Z,18.80
2023-11-01T18:13:30.453Z,18.80
2023-11-01T18:16:00.662Z,18.90
2023-11-01T18:18:56.641Z,18.90
2023-11-01T18:21:34.795Z,18.90
2023-11-01T18:24:12.567Z,18.80
2023-11-01T18:26:43.053Z,18.80
2023-11-01T18:29:19.813Z,18.80
2023-11-01T18:31:53.758Z,18.80
2023-11-01T18:34:32.344Z,18.80
2023-11-01T18:37:03.451Z,18.90
2023-11-01T18:39:31.378Z,18.90
2023-11-01T18:41:59.331Z,18.90
2023-11-01T18:44:40.091Z,18.90
2023-11-01T18:47:11.547Z,18.90
2023-11-01T18:49:59.353Z,18.80
2023-11-01T18:52:28.712Z,18.80
2023-11-01T18:54:59.752Z,18.70
2023-11-01T18:57:34.892Z,18.70
2023-11-01T19:00:13.280Z,18.60
2023-11-01T19:03:06.770Z,18.60
2023-11-01T19:05:38.766Z,18.50
2023-11-01T19:08:12.356Z,18.70
2023-11-01T19:10:56.059Z,18.60
2023-11-01T19:13:30.437Z,18.60
2023-11-01T19:16:27.954Z,18.60
2023-11-01T19:18:57.567Z,18.60
2023-11-01T19:21:28.748Z,18.70
2023-11-01T19:23:58.048Z,18.70
2023-11-01T19:26:34.567Z,18.70
2023-11-01T19:29:02.763Z,18.70
2023-11-01T19:31:39.630Z,18.70
2023-11-01T19:34:10.490Z,18.60
2023-11-01T19:36:42.284Z,18.70
2023-11-01T19:39:12.169Z,18.60
2023-11-01T19:41:43.418Z,18.50
2023-11-01T19:44:11.328Z,18.40
2023-11-01T19:46:45.328Z,18.30
2023-11-01T19:49:16.059Z,18.20
2023-11-01T19:51:43.941Z,18.10
2023-11-01T19:54:19.804Z,18.00
2023-11-01T19:56:48.266Z,17.90
2023-11-01T19:59:21.688Z,17.90
2023-11-01T20:01:55.113Z,17.90
2023-11-01T20:04:29.388Z,17.90
2023-11-01T20:06:59.703Z,17.90
2023-11-01T20:09:29.585Z,17.90
2023-11-01T20:11:59.956Z,18.00
2023-11-01T20:14:28.113Z,18.00
2023-11-01T20:17:03.462Z,18.00
2023-11-01T20:19:36.686Z,18.00
2023-11-01T20:22:05.690Z,18.00
2023-11-01T20:24:43.391Z,18.00
2023-11-01T20:27:14.139Z,17.90
2023-11-01T20:29:43.103Z,18.00
2023-11-01T20:32:14.555Z,18.10
2023-11-01T20:34:42.495Z,18.10
2023-11-01T20:37:10.525Z,18.10
2023-11-01T20:39:45.268Z,18.20
2023-11-01T20:42:16.588Z,18.20
2023-11-01T20:44:47.418Z,18.20
2023-11-01T20:47:15.410Z,18.20
2023-11-01T20:49:43.427Z,18.00
2023-11-01T20:52:11.332Z,18.00
2023-11-01T20:54:54.521Z,18.00
2023-11-01T20:57:25.869Z,17.90
2023-11-01T20:59:53.811Z,17.80
2023-11-01T21:02:21.758Z,17.90
2023-11-01T21:04:51.985Z,17.90
2023-11-01T21:07:22.102Z,17.70
2023-11-01T21:09:53.061Z,17.70
2023-11-01T21:12:21.041Z,17.70
2023-11-01T21:14:50.861Z,17.60
2023-11-01T21:17:18.770Z,17.80
2023-11-01T21:19:47.576Z,17.90
2023-11-01T21:22:21.686Z,17.80
2023-11-01T21:24:58.685Z,17.90
2023-11-01T21:27:41.968Z,18.00
2023-11-01T21:30:17.692Z,18.10
2023-11-01T21:32:52.520Z,18.10
2023-11-01T21:35:31.627Z,18.00
2023-11-01T21:38:04.855Z,18.00
2023-11-01T21:40:35.617Z,17.90
2023-11-01T21:43:09.565Z,17.90
2023-11-01T21:45:50.253Z,17.90
2023-11-01T21:48:24.800Z,17.80
2023-11-01T21:51:03.396Z,17.70
2023-11-01T21:53:38.063Z,17.50
2023-11-01T21:56:08.746Z,17.40
2023-11-01T21:58:46.308Z,17.30
2023-11-01T22:01:21.659Z,17.30
2023-11-01T22:03:52.775Z,17.20
2023-11-01T22:06:26.949Z,17.10
2023-11-01T22:09:16.976Z,17.10
2023-11-01T22:11:49.292Z,17.10
2023-11-01T22:14:32.928Z,17.00
2023-11-01T22:17:07.844Z,16.90
2023-11-01T22:19:42.435Z,16.90
2023-11-01T22:22:52.546Z,16.90
2023-11-01T22:25:30.742Z,16.80
2023-11-01T22:28:01.331Z,16.70
2023-11-01T22:30:35.101Z,16.70
2023-11-01T22:33:08.962Z,16.50
2023-11-01T22:35:48.299Z,16.50
2023-11-01T22:38:17.490Z,16.50
2023-11-01T22:40:52.106Z,16.60
2023-11-01T22:43:20.104Z,16.50
2023-11-01T22:45:53.202Z,16.60
2023-11-01T22:48:28.733Z,16.50
2023-11-01T22:50:56.722Z,16.40
2023-11-01T22:53:34.098Z,16.30
2023-11-01T22:56:02.008Z,16.30
2023-11-01T22:58:35.700Z,16.20
2023-11-01T23:01:09.414Z,16.20
2023-11-01T23:03:38.902Z,16.30
2023-11-01T23:06:10.428Z,16.50
2023-11-01T23:08:38.419Z,16.50
2023-11-01T23:11:09.451Z,16.50
2023-11-01T23:13:40.374Z,16.50
2023-11-01T23:16:09.081Z,16.60
2023-11-01T23:18:38.486Z,16.60
2023-11-01T23:21:10.474Z,16.60
2023-11-01T23:23:41.282Z,16.70
2023-11-01T23:26:19.290Z,16.70
2023-11-01T23:29:06.702Z,16.90
2023-11-01T23:31:47.431Z,16.90
2023-11-01T23:34:49.251Z,16.90
2023-11-01T23:37:23.191Z,16.90
2023-11-01T23:39:54.572Z,16.80
2023-11-01T23:42:22.790Z,16.80
2023-11-01T23:44:56.027Z,16.70
2023-11-01T23:47:26.294Z,16.60
2023-11-01T23:49:58.938Z,16.50
2023-11-01T23:52:33.147Z,16.40
2023-11-01T23:55:04.820Z,16.30
2023-11-01T23:57:32.918Z,16.20
